Time;durP1;ratioP1;P1;durP2;ratioP2;P2;SDS_P1;SDS_P2;PMS_P1;PMS_P2;Temp;Humidity;BMP_temperature;BMP_pressure;BME280_temperature;BME280_humidity;BME280_pressure;Samples;Min_cycle;Max_cycle;Signal;HPM_P1;HPM_P2
2022/01/14 01:21:23;;;;;;;14.27;5.60;;;5.50;1.00;;;;;;4900234;29;20357;-87
2022/01/14 01:23:50;;;;;;;14.20;5.83;;;5.50;1.00;;;;;;4900142;29;20202;-86
2022/01/14 01:26:24;;;;;;;18.40;5.97;;;5.40;1.00;;;;;;4900403;29;20257;-86
2022/01/14 01:29:01;;;;;;;15.00;5.70;;;5.50;1.00;;;;;;4900523;29;20187;-86
2022/01/14 01:31:36;;;;;;;17.63;5.70;;;5.60;1.00;;;;;;4900447;29;20216;-87
2022/01/14 01:34:03;;;;;;;17.27;5.40;;;5.50;1.00;;;;;;4900001;29;20190;-87
2022/01/14 01:36:31;;;;;;;16.77;5.40;;;5.60;1.00;;;;;;4900284;29;20203;-87
2022/01/14 01:38:58;;;;;;;12.57;4.30;;;5.60;1.00;;;;;;4899750;29;20603;-87
2022/01/14 01:41:26;;;;;;;14.17;5.30;;;5.60;1.00;;;;;;4917743;29;20193;-87
2022/01/14 01:43:54;;;;;;;17.10;4.80;;;5.60;1.00;;;;;;4918806;29;20206;-86
2022/01/14 01:46:23;;;;;;;10.73;3.97;;;5.60;1.00;;;;;;4917349;29;20201;-85
2022/01/14 01:48:51;;;;;;;11.23;4.00;;;5.70;1.00;;;;;;4918326;29;20209;-87
2022/01/14 01:51:19;;;;;;;11.53;4.17;;;5.70;1.00;;;;;;4918694;29;20232;-85
2022/01/14 01:53:49;;;;;;;13.80;4.17;;;5.70;1.00;;;;;;4918649;29;20328;-87
2022/01/14 01:56:16;;;;;;;12.90;3.70;;;5.70;1.00;;;;;;4918823;29;20210;-87
2022/01/14 01:58:43;;;;;;;10.47;3.57;;;5.70;1.00;;;;;;4918270;29;20787;-87
2022/01/14 02:01:10;;;;;;;15.67;4.03;;;5.70;1.00;;;;;;4918768;29;20269;-87
2022/01/14 02:03:38;;;;;;;9.17;3.50;;;5.80;1.00;;;;;;4918517;29;20206;-86
2022/01/14 02:06:05;;;;;;;14.17;3.30;;;5.80;1.00;;;;;;4918462;29;20424;-86
2022/01/14 02:08:32;;;;;;;14.73;3.53;;;5.80;1.00;;;;;;4918112;29;20724;-86
2022/01/14 02:11:01;;;;;;;15.37;3.57;;;5.80;1.00;;;;;;4918130;29;20259;-86
2022/01/14 02:13:30;;;;;;;10.00;3.60;;;5.80;1.00;;;;;;4917983;29;20694;-87
2022/01/14 02:16:19;;;;;;;10.97;4.00;;;5.80;1.00;;;;;;4918329;29;20266;-87
2022/01/14 02:19:13;;;;;;;11.73;3.50;;;5.80;1.00;;;;;;4917889;29;20665;-87
2022/01/14 02:24:55;;;;;;;10.97;3.60;;;5.80;1.00;;;;;;4918043;29;20273;-87
2022/01/14 02:27:23;;;;;;;11.80;3.30;;;5.80;1.00;;;;;;4918039;29;20661;-86
2022/01/14 02:29:50;;;;;;;11.90;3.70;;;5.80;1.00;;;;;;4917269;29;20229;-86
2022/01/14 02:32:17;;;;;;;15.10;3.90;;;5.80;1.00;;;;;;4918194;29;20219;-87
2022/01/14 02:34:44;;;;;;;12.50;2.87;;;5.80;1.00;;;;;;4918301;29;20205;-86
2022/01/14 02:37:12;;;;;;;13.00;3.20;;;5.80;1.00;;;;;;4917749;29;20197;-87
2022/01/14 02:39:40;;;;;;;14.30;3.53;;;5.80;1.00;;;;;;4917894;29;20328;-86
2022/01/14 02:42:09;;;;;;;9.47;3.10;;;5.90;1.00;;;;;;4917534;29;20209;-87
2022/01/14 02:44:38;;;;;;;9.50;2.93;;;5.90;1.00;;;;;;4917606;29;20237;-86
2022/01/14 02:47:06;;;;;;;14.03;3.17;;;5.90;1.00;;;;;;4916810;29;20226;-86
2022/01/14 02:49:36;;;;;;;9.23;3.13;;;5.90;1.00;;;;;;4917750;29;20568;-86
2022/01/14 02:52:05;;;;;;;10.03;3.00;;;5.90;1.00;;;;;;4917801;29;20222;-87
2022/01/14 02:54:40;;;;;;;10.40;3.30;;;5.90;1.00;;;;;;4917835;29;20290;-86
2022/01/14 02:57:10;;;;;;;10.67;3.13;;;5.90;1.00;;;;;;4917163;29;20221;-86
2022/01/14 02:59:40;;;;;;;9.20;3.13;;;5.90;1.00;;;;;;4917532;29;20230;-87
2022/01/14 03:02:09;;;;;;;9.90;2.77;;;5.90;1.00;;;;;;4917189;29;20244;-87
2022/01/14 03:04:39;;;;;;;6.97;2.63;;;5.90;1.00;;;;;;4917491;29;20209;-87
2022/01/14 03:07:08;;;;;;;10.47;2.80;;;5.90;1.00;;;;;;4917037;29;20284;-87
2022/01/14 03:09:37;;;;;;;8.07;3.03;;;5.90;1.00;;;;;;4917009;29;20248;-87
2022/01/14 03:12:05;;;;;;;9.13;2.80;;;6.00;1.00;;;;;;4917143;29;20206;-87
2022/01/14 03:14:32;;;;;;;8.30;2.70;;;6.00;1.00;;;;;;4917197;29;20198;-86
2022/01/14 03:17:00;;;;;;;7.07;2.97;;;6.00;1.00;;;;;;4916895;29;20210;-86
2022/01/14 03:19:29;;;;;;;8.73;2.97;;;6.00;1.00;;;;;;4917010;29;20293;-87
2022/01/14 03:22:07;;;;;;;11.20;2.90;;;6.00;1.00;;;;;;4917211;29;20194;-87
2022/01/14 03:27:25;;;;;;;6.07;2.60;;;6.00;1.00;;;;;;4898392;29;20684;-87
2022/01/14 03:29:52;;;;;;;7.67;3.00;;;6.00;1.00;;;;;;4916663;29;20620;-86
2022/01/14 03:32:19;;;;;;;7.33;3.00;;;6.00;1.00;;;;;;4917100;29;20225;-87
2022/01/14 03:34:46;;;;;;;7.77;2.70;;;6.00;1.00;;;;;;4917004;29;20206;-86
2022/01/14 03:37:13;;;;;;;11.63;3.00;;;6.00;1.00;;;;;;4916626;29;20203;-87
2022/01/14 03:39:42;;;;;;;10.30;2.70;;;6.00;1.00;;;;;;4916844;29;20673;-86
2022/01/14 03:42:09;;;;;;;9.07;2.90;;;6.00;1.00;;;;;;4916903;29;20195;-86
2022/01/14 03:44:36;;;;;;;8.93;3.07;;;6.00;1.00;;;;;;4916856;29;20201;-87
2022/01/14 03:47:03;;;;;;;10.20;3.10;;;6.00;1.00;;;;;;4916516;29;20202;-86
2022/01/14 03:49:30;;;;;;;11.17;3.07;;;6.00;1.00;;;;;;4916077;29;20242;-85
2022/01/14 03:51:57;;;;;;;11.13;3.57;;;6.00;1.00;;;;;;4916384;29;20201;-87
2022/01/14 03:54:24;;;;;;;12.97;4.00;;;5.90;1.00;;;;;;4916668;29;20405;-86
2022/01/14 03:56:53;;;;;;;11.30;4.07;;;5.90;1.00;;;;;;4916539;29;20213;-86
2022/01/14 03:59:20;;;;;;;10.07;4.80;;;5.90;1.00;;;;;;4916887;29;20198;-86
2022/01/14 04:01:47;;;;;;;11.03;5.10;;;5.90;1.00;;;;;;4916801;29;20645;-87
2022/01/14 04:04:14;;;;;;;10.40;4.93;;;5.90;1.00;;;;;;4916248;29;20270;-86
2022/01/14 04:06:41;;;;;;;14.07;5.00;;;5.80;1.00;;;;;;4916366;29;20198;-87
2022/01/14 04:09:08;;;;;;;12.70;5.43;;;5.80;1.00;;;;;;4915941;29;20197;-86
2022/01/14 04:11:39;;;;;;;15.97;5.73;;;5.70;1.00;;;;;;4916656;29;20221;-87
2022/01/14 04:15:36;;;;;;;24.97;8.83;;;5.70;1.00;;;;;;4916141;29;20217;-86
2022/01/14 04:16:57;;;;;;;37.50;17.60;;;5.70;1.00;;;;;;4915794;29;20185;-87
2022/01/14 04:19:26;;;;;;;24.20;13.20;;;5.70;1.00;;;;;;4916486;29;20288;-86
2022/01/14 04:21:53;;;;;;;23.67;9.07;;;5.70;1.00;;;;;;4897456;29;20207;-87
2022/01/14 04:24:20;;;;;;;19.40;7.00;;;5.60;1.00;;;;;;4897627;29;20202;-85
2022/01/14 04:26:47;;;;;;;18.30;7.43;;;5.70;1.00;;;;;;4897217;29;20206;-87
2022/01/14 04:29:15;;;;;;;18.53;6.77;;;5.70;1.00;;;;;;4897640;29;20214;-86
2022/01/14 04:31:42;;;;;;;23.20;9.40;;;5.60;1.00;;;;;;4897314;29;20209;-86
2022/01/14 04:34:09;;;;;;;21.47;7.40;;;5.70;1.00;;;;;;4896680;29;20646;-85
2022/01/14 04:36:37;;;;;;;14.17;6.40;;;5.70;1.00;;;;;;4897459;29;20263;-87
2022/01/14 04:39:04;;;;;;;15.93;6.53;;;5.70;1.00;;;;;;4897292;29;20210;-87
2022/01/14 04:41:31;;;;;;;14.93;6.93;;;5.70;1.00;;;;;;4897355;29;20212;-87
2022/01/14 04:43:58;;;;;;;18.23;7.20;;;5.70;1.00;;;;;;4896794;29;20262;-86
2022/01/14 04:49:10;;;;;;;17.83;6.57;;;5.70;1.00;;;;;;4890467;29;20191;-87
2022/01/14 04:51:38;;;;;;;19.80;7.07;;;5.70;1.00;;;;;;4896913;29;20658;-86
2022/01/14 04:54:05;;;;;;;14.43;6.60;;;5.70;1.00;;;;;;4878339;29;20322;-85
2022/01/14 04:56:33;;;;;;;14.80;7.53;;;5.70;1.00;;;;;;4878593;29;20203;-87
2022/01/14 04:59:00;;;;;;;20.73;8.13;;;5.80;1.00;;;;;;4878747;29;20246;-86
2022/01/14 05:01:29;;;;;;;15.97;6.27;;;5.80;1.00;;;;;;4878487;29;20207;-86
2022/01/14 05:03:58;;;;;;;12.27;6.00;;;5.80;1.00;;;;;;4895671;29;20251;-87
2022/01/14 05:06:26;;;;;;;16.63;6.30;;;5.80;1.00;;;;;;4897202;29;20211;-88
2022/01/14 05:08:53;;;;;;;17.13;5.70;;;5.80;1.00;;;;;;4897614;29;20211;-87
2022/01/14 05:11:36;;;;;;;9.00;4.90;;;5.80;1.00;;;;;;4897511;29;20209;-86
2022/01/14 05:14:03;;;;;;;16.87;5.57;;;5.90;1.00;;;;;;4896867;29;20210;-86
2022/01/14 05:16:31;;;;;;;11.57;5.07;;;5.90;1.00;;;;;;4897056;29;20633;-87
2022/01/14 05:18:58;;;;;;;13.30;5.03;;;5.90;1.00;;;;;;4897224;29;20206;-87
2022/01/14 05:21:25;;;;;;;11.10;4.90;;;5.90;1.00;;;;;;4915586;29;20801;-86
2022/01/14 05:23:52;;;;;;;11.77;5.17;;;5.90;1.00;;;;;;4919294;29;20332;-87
2022/01/14 05:26:19;;;;;;;11.90;5.27;;;5.90;1.00;;;;;;4919224;29;20254;-86
2022/01/14 05:28:46;;;;;;;12.37;4.40;;;5.90;1.00;;;;;;4919444;29;20210;-86
2022/01/14 05:31:13;;;;;;;9.30;4.47;;;5.90;1.00;;;;;;4918692;29;20250;-87
2022/01/14 05:33:46;;;;;;;9.90;4.33;;;5.90;1.00;;;;;;4918934;29;20707;-86
2022/01/14 05:36:13;;;;;;;13.13;4.37;;;5.90;1.00;;;;;;4919336;29;20604;-88
2022/01/14 05:38:40;;;;;;;11.33;4.33;;;6.00;1.00;;;;;;4918735;29;20734;-86
2022/01/14 05:41:07;;;;;;;7.30;3.67;;;6.00;1.00;;;;;;4918554;29;20259;-86
2022/01/14 05:43:34;;;;;;;11.80;4.70;;;6.00;1.00;;;;;;4918900;29;20569;-88
2022/01/14 05:46:01;;;;;;;8.13;4.10;;;6.00;1.00;;;;;;4919103;29;20271;-88
2022/01/14 05:48:28;;;;;;;9.17;4.07;;;6.10;1.00;;;;;;4918907;29;20273;-86
2022/01/14 05:50:56;;;;;;;9.00;4.20;;;6.10;1.00;;;;;;4919053;29;20238;-86
2022/01/14 05:53:23;;;;;;;11.83;4.43;;;6.10;1.00;;;;;;4918894;29;20221;-87
2022/01/14 05:55:50;;;;;;;9.47;5.23;;;6.10;1.00;;;;;;4918786;29;20263;-88
2022/01/14 05:58:17;;;;;;;14.97;7.43;;;6.10;1.00;;;;;;4918817;29;20251;-85
2022/01/14 06:00:44;;;;;;;15.07;7.43;;;6.10;1.00;;;;;;4918108;29;20199;-86
2022/01/14 06:03:11;;;;;;;25.93;12.23;;;6.10;1.00;;;;;;4918684;29;20205;-87
2022/01/14 06:05:38;;;;;;;23.87;8.70;;;6.10;1.00;;;;;;4918461;29;20553;-86
2022/01/14 06:08:06;;;;;;;18.33;10.00;;;6.10;1.00;;;;;;4918576;29;20721;-85
2022/01/14 06:10:33;;;;;;;22.53;11.77;;;6.10;1.00;;;;;;4918082;29;20663;-88
2022/01/14 06:13:00;;;;;;;24.27;12.40;;;6.20;1.00;;;;;;4918224;29;20665;-87
2022/01/14 06:15:27;;;;;;;22.37;11.00;;;6.20;1.00;;;;;;4918636;29;20250;-87
2022/01/14 06:17:54;;;;;;;33.60;15.07;;;6.20;1.00;;;;;;4918282;29;20589;-86
2022/01/14 06:20:23;;;;;;;19.57;7.60;;;6.20;1.00;;;;;;4918060;29;20702;-87
2022/01/14 06:22:50;;;;;;;21.83;9.47;;;6.20;1.00;;;;;;4918681;29;20209;-88
2022/01/14 06:25:18;;;;;;;23.17;9.90;;;6.20;1.00;;;;;;4918279;29;20253;-88
2022/01/14 06:27:45;;;;;;;24.20;11.10;;;6.20;1.00;;;;;;4918331;29;20242;-87
2022/01/14 06:30:15;;;;;;;19.70;9.37;;;6.20;1.00;;;;;;4918556;29;20205;-89
2022/01/14 06:32:44;;;;;;;22.70;10.83;;;6.30;1.00;;;;;;4917691;29;20213;-89
2022/01/14 06:35:12;;;;;;;10.93;6.17;;;6.20;1.00;;;;;;4918405;29;20286;-89
2022/01/14 06:37:39;;;;;;;13.77;5.63;;;6.20;1.00;;;;;;4918263;29;20549;-89
2022/01/14 06:40:08;;;;;;;12.60;6.17;;;6.20;1.00;;;;;;4918209;29;20173;-89
2022/01/14 06:42:36;;;;;;;12.27;6.13;;;6.20;1.00;;;;;;4917968;29;20665;-89
2022/01/14 06:45:04;;;;;;;11.87;5.90;;;6.20;1.00;;;;;;4918388;29;20206;-87
2022/01/14 06:47:31;;;;;;;14.80;6.13;;;6.20;1.00;;;;;;4918273;29;20209;-90
2022/01/14 06:49:59;;;;;;;11.03;5.07;;;6.20;1.00;;;;;;4918254;29;20258;-87
2022/01/14 06:52:26;;;;;;;11.23;5.07;;;6.20;1.00;;;;;;4918336;29;20558;-89
2022/01/14 06:54:53;;;;;;;9.23;4.93;;;6.30;1.00;;;;;;4917915;29;20224;-88
2022/01/14 06:57:22;;;;;;;12.50;4.87;;;6.30;1.00;;;;;;4918017;29;20607;-87
2022/01/14 06:59:50;;;;;;;9.70;4.77;;;6.30;1.00;;;;;;4918010;29;20290;-89
2022/01/14 07:02:17;;;;;;;12.77;5.20;;;6.30;1.00;;;;;;4917921;29;20215;-88
2022/01/14 07:04:44;;;;;;;8.93;4.90;;;6.30;1.00;;;;;;4917413;29;20760;-89
2022/01/14 07:07:11;;;;;;;6.03;3.73;;;6.40;1.00;;;;;;4917595;29;20207;-89
2022/01/14 07:09:55;;;;;;;10.30;4.93;;;6.30;1.00;;;;;;4917898;29;20253;-89
2022/01/14 07:12:23;;;;;;;8.03;4.40;;;6.40;1.00;;;;;;4917560;29;20198;-87
2022/01/14 07:14:52;;;;;;;7.77;4.37;;;6.40;1.00;;;;;;4917291;29;20258;-89
2022/01/14 07:17:19;;;;;;;7.87;4.00;;;6.40;1.00;;;;;;4917670;29;20567;-88
2022/01/14 07:19:49;;;;;;;9.53;4.20;;;6.40;1.00;;;;;;4917075;29;20873;-89
2022/01/14 07:22:19;;;;;;;9.67;4.00;;;6.40;1.00;;;;;;4917939;29;20198;-86
2022/01/14 07:24:46;;;;;;;6.63;3.97;;;6.40;1.00;;;;;;4917634;29;20724;-90
2022/01/14 07:27:13;;;;;;;7.17;4.50;;;6.40;1.00;;;;;;4917569;29;20214;-89
2022/01/14 07:29:40;;;;;;;7.10;4.20;;;6.40;1.00;;;;;;4917676;29;20180;-88
2022/01/14 07:32:10;;;;;;;10.10;5.50;;;6.50;1.00;;;;;;4917429;29;20643;-87
2022/01/14 07:34:37;;;;;;;7.47;5.33;;;6.50;1.00;;;;;;4917310;29;20294;-88
2022/01/14 07:37:04;;;;;;;7.83;5.33;;;6.50;1.00;;;;;;4917628;29;20202;-87
2022/01/14 07:39:31;;;;;;;9.30;5.30;;;6.50;1.00;;;;;;4917632;29;20255;-88
2022/01/14 07:41:58;;;;;;;10.73;6.00;;;6.50;1.00;;;;;;4917704;29;20211;-88
2022/01/14 07:44:25;;;;;;;11.53;5.93;;;6.50;1.00;;;;;;4916162;29;20672;-87
2022/01/14 07:46:52;;;;;;;10.37;6.30;;;6.50;1.00;;;;;;4918536;29;20548;-87
2022/01/14 07:49:21;;;;;;;12.03;6.10;;;6.50;1.00;;;;;;4919941;29;20251;-90
2022/01/14 07:51:48;;;;;;;9.43;5.87;;;6.50;1.00;;;;;;4923298;29;20262;-87
2022/01/14 07:54:15;;;;;;;11.57;6.30;;;6.50;1.00;;;;;;4922912;29;20228;-89
2022/01/14 07:56:45;;;;;;;13.17;6.30;;;6.50;1.00;;;;;;4922726;29;20205;-88
2022/01/14 07:59:13;;;;;;;7.33;4.63;;;6.50;1.00;;;;;;4922564;29;20210;-88
2022/01/14 08:01:42;;;;;;;8.27;4.50;;;6.60;1.00;;;;;;4922145;29;20205;-88
2022/01/14 08:04:09;;;;;;;8.67;4.87;;;6.60;1.00;;;;;;4922639;29;20218;-90
2022/01/14 08:06:44;;;;;;;7.90;4.80;;;6.60;1.00;;;;;;4922709;29;20203;-89
2022/01/14 08:09:11;;;;;;;6.57;4.63;;;6.60;1.00;;;;;;4921671;29;20201;-88
2022/01/14 08:11:38;;;;;;;7.00;4.40;;;6.60;1.00;;;;;;4920687;29;20202;-90
2022/01/14 08:14:05;;;;;;;11.23;4.93;;;6.60;1.00;;;;;;4921100;29;20690;-89
2022/01/14 08:16:32;;;;;;;7.83;5.10;;;6.60;1.00;;;;;;4922154;29;20254;-87
2022/01/14 08:18:59;;;;;;;12.13;5.20;;;6.70;1.00;;;;;;4921255;29;20206;-88
2022/01/14 08:21:26;;;;;;;9.27;4.70;;;6.70;1.00;;;;;;4921489;29;20242;-90
2022/01/14 08:23:55;;;;;;;9.63;5.87;;;6.70;1.00;;;;;;4921160;29;20235;-88
2022/01/14 08:26:22;;;;;;;7.90;4.90;;;6.70;1.00;;;;;;4920687;29;20584;-91
2022/01/14 08:28:49;;;;;;;7.47;5.20;;;6.70;1.00;;;;;;4921371;29;20664;-88
2022/01/14 08:31:17;;;;;;;9.87;5.10;;;6.70;1.00;;;;;;4920839;29;20199;-88
2022/01/14 08:33:46;;;;;;;8.83;5.57;;;6.70;1.00;;;;;;4920770;29;20205;-87
2022/01/14 08:36:13;;;;;;;18.43;10.43;;;6.70;1.00;;;;;;4920137;29;20198;-88
2022/01/14 08:38:40;;;;;;;19.10;11.57;;;6.70;1.00;;;;;;4920724;29;20207;-87
2022/01/14 08:41:08;;;;;;;27.80;15.33;;;6.70;1.00;;;;;;4920814;29;20217;-88
2022/01/14 08:43:36;;;;;;;35.17;19.67;;;6.70;1.00;;;;;;4920759;29;20213;-87
2022/01/14 08:46:03;;;;;;;46.17;26.50;;;6.70;1.00;;;;;;4920243;29;20748;-87
2022/01/14 08:48:31;;;;;;;26.33;16.47;;;6.70;1.00;;;;;;4919893;29;20199;-87
2022/01/14 08:50:59;;;;;;;21.57;11.97;;;6.60;1.00;;;;;;4920027;29;20226;-89
2022/01/14 08:53:26;;;;;;;14.40;8.50;;;6.60;1.00;;;;;;4919980;29;20232;-88
2022/01/14 08:55:53;;;;;;;18.13;10.27;;;6.60;1.00;;;;;;4918871;29;20224;-89
2022/01/14 08:58:22;;;;;;;15.13;9.73;;;6.60;1.00;;;;;;4915774;29;20203;-89
2022/01/14 09:00:49;;;;;;;16.10;8.70;;;6.60;1.00;;;;;;4915240;29;20206;-87
2022/01/14 09:03:16;;;;;;;12.50;8.37;;;6.60;1.00;;;;;;4910829;29;20199;-91
2022/01/14 09:05:44;;;;;;;11.50;8.00;;;6.50;1.00;;;;;;4914690;29;20205;-90
2022/01/14 09:08:11;;;;;;;14.93;8.07;;;6.50;1.00;;;;;;4917586;29;20636;-88
2022/01/14 09:10:43;;;;;;;12.50;7.43;;;6.50;1.00;;;;;;4913964;29;20650;-90
2022/01/14 09:13:11;;;;;;;11.83;6.20;;;6.50;1.00;;;;;;4912009;29;20522;-88
2022/01/14 09:15:40;;;;;;;10.27;5.63;;;6.50;14.00;;;;;;4911489;29;20278;-91
2022/01/14 09:18:07;;;;;;;9.43;5.20;;;6.50;19.10;;;;;;4915223;29;20210;-93
2022/01/14 09:20:35;;;;;;;11.97;8.10;;;6.50;30.40;;;;;;4914500;29;20690;-88
2022/01/14 09:23:04;;;;;;;42.73;18.93;;;6.50;36.90;;;;;;4915057;29;20210;-89
2022/01/14 09:25:32;;;;;;;30.73;13.77;;;6.50;43.10;;;;;;4903378;29;20203;-89
2022/01/14 09:27:58;;;;;;;41.23;21.60;;;6.50;59.10;;;;;;4915281;29;20258;-86
2022/01/14 09:30:26;;;;;;;25.87;14.57;;;6.50;61.20;;;;;;4906443;29;20200;-86
2022/01/14 09:32:54;;;;;;;14.53;10.00;;;6.50;81.80;;;;;;4906171;29;20637;-87
2022/01/14 09:35:23;;;;;;;11.53;7.13;;;6.50;91.50;;;;;;4910132;29;20227;-87
2022/01/14 09:37:50;;;;;;;13.60;8.17;;;6.50;99.20;;;;;;4909697;29;20209;-85
2022/01/14 09:40:19;;;;;;;9.10;6.47;;;6.50;99.90;;;;;;4909931;29;20215;-88
2022/01/14 09:42:48;;;;;;;11.63;5.80;;;6.50;99.90;;;;;;4917501;29;20202;-87
2022/01/14 09:45:15;;;;;;;10.90;6.30;;;6.50;99.90;;;;;;4918732;29;20276;-87
2022/01/14 09:47:43;;;;;;;14.00;7.00;;;6.50;99.90;;;;;;4918716;29;20532;-87
2022/01/14 09:50:12;;;;;;;11.57;7.43;;;6.50;99.90;;;;;;4917960;29;20227;-88
2022/01/14 09:52:40;;;;;;;14.03;7.90;;;6.50;99.90;;;;;;4915287;29;20198;-88
2022/01/14 09:55:08;;;;;;;11.63;7.07;;;6.50;99.90;;;;;;4918406;29;20214;-88
2022/01/14 09:57:36;;;;;;;13.07;7.00;;;6.50;99.90;;;;;;4918771;29;20249;-88
2022/01/14 10:00:05;;;;;;;12.43;7.83;;;6.60;99.90;;;;;;4917968;29;20617;-90
2022/01/14 10:02:34;;;;;;;13.10;8.30;;;6.60;99.90;;;;;;4918306;29;20210;-88
2022/01/14 10:05:03;;;;;;;14.70;9.43;;;6.60;99.90;;;;;;4918729;29;20205;-88
2022/01/14 10:07:32;;;;;;;19.67;10.80;;;6.60;99.90;;;;;;4917895;29;20657;-88
2022/01/14 10:10:00;;;;;;;15.23;9.43;;;6.60;99.90;;;;;;4918912;29;20201;-89
2022/01/14 10:12:32;;;;;;;18.63;11.50;;;6.60;99.90;;;;;;4918936;29;20216;-87
2022/01/14 10:15:01;;;;;;;14.10;9.63;;;6.60;99.90;;;;;;4918978;29;20233;-88
2022/01/14 10:17:41;;;;;;;16.43;9.30;;;6.60;99.90;;;;;;4918938;29;20656;-90
2022/01/14 10:20:10;;;;;;;16.30;10.07;;;6.60;99.90;;;;;;4918583;29;20233;-88
2022/01/14 10:22:41;;;;;;;13.67;7.90;;;6.70;99.90;;;;;;4918707;29;20666;-88
2022/01/14 10:25:10;;;;;;;11.17;6.87;;;6.70;99.90;;;;;;4918873;29;20211;-89
2022/01/14 10:27:39;;;;;;;12.80;8.10;;;6.70;99.90;;;;;;4918807;29;20254;-89
2022/01/14 10:30:12;;;;;;;9.20;7.07;;;6.80;99.90;;;;;;4918642;29;20203;-88
2022/01/14 10:32:41;;;;;;;8.50;5.23;;;6.80;99.90;;;;;;4918269;29;20263;-90
2022/01/14 10:35:10;;;;;;;7.93;5.33;;;6.80;99.90;;;;;;4918817;29;20269;-88
2022/01/14 10:37:38;;;;;;;8.20;5.43;;;6.80;99.90;;;;;;4918729;29;20717;-88
2022/01/14 10:40:13;;;;;;;8.30;5.27;;;6.80;99.90;;;;;;4918395;29;20196;-89
2022/01/14 10:42:41;;;;;;;11.07;5.57;;;6.80;99.90;;;;;;4918057;29;20196;-88
2022/01/14 10:45:22;;;;;;;9.67;5.87;;;6.90;99.90;;;;;;4917948;29;20629;-89
2022/01/14 10:48:00;;;;;;;10.87;6.60;;;6.90;99.90;;;;;;4918231;29;20191;-88
2022/01/14 10:50:33;;;;;;;15.33;8.60;;;6.90;99.90;;;;;;4917967;29;20259;-88
2022/01/14 10:53:01;;;;;;;8.80;5.10;;;6.90;99.90;;;;;;4918156;29;20182;-88
2022/01/14 10:55:32;;;;;;;5.00;3.40;;;6.90;99.90;;;;;;4917754;29;20232;-88
2022/01/14 10:58:01;;;;;;;5.60;3.67;;;6.90;99.90;;;;;;4918008;29;20207;-89
2022/01/14 11:00:29;;;;;;;4.77;3.30;;;6.90;99.90;;;;;;4918104;29;20218;-88
2022/01/14 11:02:56;;;;;;;5.00;3.60;;;6.90;99.90;;;;;;4917918;29;20547;-88
2022/01/14 11:05:25;;;;;;;5.73;3.70;;;7.00;99.90;;;;;;4917971;29;20659;-88
2022/01/14 11:07:53;;;;;;;4.47;3.03;;;7.00;99.90;;;;;;4917563;29;20211;-89
2022/01/14 11:10:23;;;;;;;4.37;2.67;;;7.00;99.90;;;;;;4917853;29;20199;-89
2022/01/14 11:12:52;;;;;;;7.07;3.10;;;7.00;99.90;;;;;;4917870;29;20232;-89
2022/01/14 11:15:21;;;;;;;4.60;2.90;;;7.00;99.90;;;;;;4917564;29;20224;-89
2022/01/14 11:17:51;;;;;;;5.53;2.77;;;7.10;99.90;;;;;;4917198;29;20668;-88
2022/01/14 11:20:24;;;;;;;4.50;2.93;;;7.00;99.90;;;;;;4917402;29;20235;-89
2022/01/14 11:25:45;;;;;;;5.43;4.03;;;7.10;99.90;;;;;;4917652;29;20763;-89
2022/01/14 11:28:19;;;;;;;8.17;4.30;;;7.10;99.90;;;;;;4917569;29;20589;-88
2022/01/14 11:30:46;;;;;;;7.00;5.27;;;7.10;99.90;;;;;;4917413;29;20207;-89
2022/01/14 11:33:15;;;;;;;10.27;7.37;;;7.20;99.90;;;;;;4917606;29;20278;-88
2022/01/14 11:36:00;;;;;;;45.03;18.90;;;7.20;99.90;;;;;;4917234;29;20219;-88
2022/01/14 11:38:35;;;;;;;34.40;13.57;;;7.20;99.90;;;;;;4917723;29;20197;-88
2022/01/14 11:41:02;;;;;;;58.63;21.23;;;7.30;99.90;;;;;;4917308;29;20206;-89
2022/01/14 11:43:43;;;;;;;53.90;20.23;;;7.30;99.90;;;;;;4916788;29;20243;-89
2022/01/14 11:46:13;;;;;;;36.77;15.03;;;7.20;99.90;;;;;;4917752;29;20673;-88
2022/01/14 11:48:45;;;;;;;55.10;22.87;;;7.20;99.90;;;;;;4917358;29;20609;-88
2022/01/14 11:51:15;;;;;;;50.27;20.77;;;7.20;99.90;;;;;;4917037;29;20244;-90
2022/01/14 11:53:48;;;;;;;26.03;12.97;;;7.20;99.90;;;;;;4917100;29;20618;-89
2022/01/14 11:56:47;;;;;;;22.87;16.60;;;7.20;99.90;;;;;;4917020;29;20229;-89
2022/01/14 11:59:44;;;;;;;13.93;9.70;;;7.30;99.90;;;;;;4916159;29;20681;-88
2022/01/14 12:02:39;;;;;;;34.60;17.37;;;7.30;99.90;;;;;;4917329;29;20288;-89
2022/01/14 12:05:24;;;;;;;14.33;7.07;;;7.30;99.90;;;;;;4917229;29;20212;-88
2022/01/14 12:08:21;;;;;;;7.13;4.93;;;7.30;99.90;;;;;;4916799;29;20200;-88
2022/01/14 12:10:51;;;;;;;6.73;4.30;;;7.30;99.90;;;;;;4916680;29;20664;-89
2022/01/14 12:13:23;;;;;;;11.03;5.87;;;7.30;99.90;;;;;;4916670;29;20211;-89
2022/01/14 12:15:57;;;;;;;7.03;5.13;;;7.30;99.90;;;;;;4916713;29;20646;-90
2022/01/14 12:19:17;;;;;;;22.03;13.33;;;7.30;99.90;;;;;;4917325;29;20200;-88
2022/01/14 12:22:06;;;;;;;11.77;8.23;;;7.40;99.90;;;;;;4917102;29;20243;-88
2022/01/14 12:24:50;;;;;;;20.30;12.60;;;7.40;99.90;;;;;;4916371;29;20269;-90
2022/01/14 12:27:23;;;;;;;18.20;10.70;;;7.40;99.90;;;;;;4916449;29;20195;-88
2022/01/14 12:29:52;;;;;;;7.53;5.47;;;7.40;99.90;;;;;;4917528;29;20268;-89
2022/01/14 12:32:22;;;;;;;9.77;5.80;;;7.40;99.90;;;;;;4920448;29;20208;-88
2022/01/14 12:35:01;;;;;;;5.90;4.30;;;7.40;99.90;;;;;;4920013;29;20191;-89
2022/01/14 12:37:30;;;;;;;6.97;3.13;;;7.50;99.90;;;;;;4920771;29;20206;-88
2022/01/14 12:39:58;;;;;;;2.97;1.90;;;7.50;99.90;;;;;;4920506;29;20209;-90
2022/01/14 12:42:26;;;;;;;4.80;1.73;;;7.50;99.90;;;;;;4920711;29;20209;-89
2022/01/14 12:44:54;;;;;;;4.20;2.70;;;7.60;99.90;;;;;;4920424;29;20212;-89
2022/01/14 12:47:26;;;;;;;14.50;7.80;;;7.60;99.90;;;;;;4920549;29;20206;-89
2022/01/14 12:49:53;;;;;;;13.87;7.67;;;7.60;99.90;;;;;;4920341;29;20566;-89
2022/01/14 12:52:30;;;;;;;37.57;19.10;;;7.70;99.90;;;;;;4920295;29;20208;-89
2022/01/14 12:54:57;;;;;;;10.03;6.20;;;7.70;99.90;;;;;;4919924;29;20268;-88
2022/01/14 12:57:25;;;;;;;15.40;7.97;;;7.70;99.90;;;;;;4920005;29;20206;-89
2022/01/14 12:59:53;;;;;;;11.13;5.33;;;7.70;99.90;;;;;;4920041;29;20294;-88
2022/01/14 13:02:22;;;;;;;15.03;5.37;;;7.70;97.90;;;;;;4920069;29;20290;-88
2022/01/14 13:05:02;;;;;;;5.80;3.90;;;7.70;92.20;;;;;;4919928;29;20209;-87
2022/01/14 13:07:29;;;;;;;7.60;4.80;;;7.70;71.20;;;;;;4920076;29;20566;-89
2022/01/14 13:09:57;;;;;;;7.63;4.10;;;7.70;73.50;;;;;;4920138;29;20289;-87
2022/01/14 13:12:28;;;;;;;6.07;3.53;;;7.70;60.10;;;;;;4919957;29;20279;-89
2022/01/14 13:14:56;;;;;;;4.23;2.80;;;7.80;54.40;;;;;;4919877;29;20209;-88
2022/01/14 13:17:27;;;;;;;4.00;2.63;;;7.80;44.20;;;;;;4919892;29;20571;-87
2022/01/14 13:19:58;;;;;;;6.97;1.97;;;7.80;28.30;;;;;;4923087;29;20311;-88
2022/01/14 13:22:30;;;;;;;4.00;2.57;;;7.80;19.10;;;;;;4931985;29;20272;-88
2022/01/14 13:24:59;;;;;;;4.90;2.20;;;7.90;2.40;;;;;;4919344;29;20198;-87
2022/01/14 13:27:28;;;;;;;3.07;2.00;;;7.90;1.00;;;;;;4918295;29;20258;-87
2022/01/14 13:29:57;;;;;;;4.80;1.90;;;7.90;1.00;;;;;;4919212;29;20539;-88
2022/01/14 13:32:26;;;;;;;4.33;1.50;;;7.90;1.00;;;;;;4925421;29;20202;-88
2022/01/14 13:34:55;;;;;;;3.73;1.40;;;7.90;1.00;;;;;;4937901;29;20207;-88
2022/01/14 13:37:24;;;;;;;5.50;1.60;;;7.90;1.00;;;;;;4929904;29;20570;-87
2022/01/14 13:40:08;;;;;;;7.23;1.87;;;7.90;1.00;;;;;;4918919;29;20213;-87
2022/01/14 13:42:36;;;;;;;9.37;1.90;;;7.80;1.00;;;;;;4917054;29;20185;-87
2022/01/14 13:45:18;;;;;;;4.53;1.43;;;7.80;1.00;;;;;;4918361;29;20200;-87
2022/01/14 13:47:55;;;;;;;8.00;4.37;;;7.80;1.00;;;;;;4918275;29;20201;-88
2022/01/14 13:50:23;;;;;;;6.97;2.27;;;7.70;1.00;;;;;;4918139;29;20719;-89
2022/01/14 13:52:58;;;;;;;6.73;2.87;;;7.70;1.00;;;;;;4927187;29;20310;-88
2022/01/14 13:55:33;;;;;;;7.73;2.90;;;7.60;1.00;;;;;;4937423;29;20203;-88
2022/01/14 13:58:05;;;;;;;8.73;2.83;;;7.70;1.00;;;;;;4927019;29;20196;-88
2022/01/14 14:00:34;;;;;;;10.23;3.07;;;7.60;1.00;;;;;;4918167;29;20206;-87
2022/01/14 14:03:01;;;;;;;6.50;2.40;;;7.60;1.00;;;;;;4917943;29;20614;-89
2022/01/14 14:05:39;;;;;;;9.03;2.70;;;7.60;1.00;;;;;;4917838;29;20678;-88
2022/01/14 14:08:14;;;;;;;11.23;2.80;;;7.50;1.00;;;;;;4917858;29;20670;-88
2022/01/14 14:16:30;;;;;;;5.80;2.10;;;7.40;1.00;;;;;;4935843;29;20225;-88
2022/01/14 14:18:58;;;;;;;7.77;2.87;;;7.30;99.90;;;;;;4925941;29;20195;-88
2022/01/14 14:21:28;;;;;;;5.80;2.27;;;7.20;1.00;;;;;;4917273;29;20220;-88
2022/01/14 14:23:56;;;;;;;7.07;2.13;;;7.20;1.00;;;;;;4917236;29;20187;-88
2022/01/14 14:26:32;;;;;;;9.63;2.03;;;7.10;99.90;;;;;;4917354;29;20690;-88
2022/01/14 14:29:01;;;;;;;8.70;2.20;;;7.00;99.90;;;;;;4917729;29;20202;-88
2022/01/14 14:31:31;;;;;;;7.53;2.13;;;7.00;99.90;;;;;;4916845;29;20195;-88
2022/01/14 14:33:58;;;;;;;9.43;2.57;;;6.90;97.70;;;;;;4917665;29;20651;-88
2022/01/14 14:36:28;;;;;;;5.60;1.83;;;6.80;1.00;;;;;;4917452;29;20230;-87
2022/01/14 14:38:56;;;;;;;6.47;2.10;;;6.80;1.00;;;;;;4917040;29;20259;-88
2022/01/14 14:41:23;;;;;;;7.90;2.07;;;6.70;1.00;;;;;;4916916;29;20664;-87
2022/01/14 14:43:52;;;;;;;8.57;2.13;;;6.60;1.00;;;;;;4917733;29;20592;-87
2022/01/14 14:46:20;;;;;;;8.37;1.80;;;6.60;1.00;;;;;;4916409;29;20676;-88